createdAt,value
2023-02-27T00:00:27.762Z,0.00
2023-02-27T00:10:27.830Z,0.00
2023-02-27T00:20:28.058Z,0.00
2023-02-27T00:30:28.426Z,0.00
2023-02-27T00:40:28.371Z,0.00
2023-02-27T00:50:28.653Z,0.00
2023-02-27T01:00:28.958Z,0.00
2023-02-27T01:10:29.025Z,0.00
2023-02-27T01:20:29.298Z,0.00
2023-02-27T01:30:29.440Z,0.00
2023-02-27T01:40:29.464Z,0.00
2023-02-27T01:50:29.790Z,0.00
2023-02-27T02:00:29.825Z,0.00
2023-02-27T02:10:30.147Z,0.00
2023-02-27T02:20:30.183Z,0.00
2023-02-27T02:30:30.613Z,0.00
2023-02-27T02:40:30.718Z,0.00
2023-02-27T02:50:30.884Z,0.00
2023-02-27T03:00:30.916Z,0.00
2023-02-27T03:10:31.248Z,0.00
2023-02-27T03:20:31.276Z,0.00
2023-02-27T03:30:31.646Z,0.00
2023-02-27T03:40:33.861Z,0.00
2023-02-27T03:50:32.090Z,0.00
2023-02-27T04:00:32.239Z,0.00
2023-02-27T04:10:32.388Z,0.00
2023-02-27T04:20:32.421Z,0.00
2023-02-27T04:30:32.740Z,0.00
2023-02-27T04:40:32.777Z,0.00
2023-02-27T04:50:33.101Z,0.00
2023-02-27T05:00:33.138Z,0.00
2023-02-27T05:10:33.509Z,0.00
2023-02-27T05:20:33.560Z,0.00
2023-02-27T05:30:36.906Z,0.00
2023-02-27T05:40:33.942Z,0.00
2023-02-27T05:50:34.211Z,0.00
2023-02-27T06:00:34.260Z,0.00
2023-02-27T06:10:34.575Z,0.00
2023-02-27T06:20:34.602Z,0.00
2023-02-27T06:30:34.865Z,0.00
2023-02-27T06:40:35.006Z,5.62
2023-02-27T06:50:35.256Z,5.62
2023-02-27T07:00:35.308Z,11.25
2023-02-27T07:10:35.681Z,16.88
2023-02-27T07:20:35.738Z,22.50
2023-02-27T07:30:36.055Z,33.75
2023-02-27T07:40:36.085Z,33.75
2023-02-27T07:50:36.452Z,33.75
2023-02-27T08:00:36.483Z,50.62
2023-02-27T08:10:36.800Z,50.62
2023-02-27T08:20:36.837Z,39.38
2023-02-27T08:30:39.224Z,45.00
2023-02-27T08:40:37.276Z,45.00
2023-02-27T08:50:37.728Z,45.00
2023-02-27T09:00:37.601Z,50.62
2023-02-27T09:10:37.917Z,56.25
2023-02-27T09:20:37.944Z,61.88
2023-02-27T09:30:38.287Z,78.75
2023-02-27T09:40:38.315Z,61.88
2023-02-27T09:50:38.683Z,67.50
2023-02-27T10:00:38.727Z,67.50
2023-02-27T10:10:39.042Z,56.25
2023-02-27T10:20:39.074Z,56.25
2023-02-27T10:30:39.490Z,50.62
2023-02-27T10:40:39.537Z,50.62
2023-02-27T10:50:39.873Z,50.62
2023-02-27T11:00:39.909Z,50.62
2023-02-27T11:10:40.243Z,56.25
2023-02-27T11:20:40.269Z,56.25
2023-02-27T11:30:40.613Z,56.25
2023-02-27T11:40:40.644Z,56.25
2023-02-27T11:50:40.980Z,56.25
2023-02-27T12:00:41.018Z,56.25
2023-02-27T12:10:41.359Z,56.25
2023-02-27T12:20:41.398Z,56.25
2023-02-27T12:30:41.720Z,56.25
2023-02-27T12:40:41.755Z,56.25
2023-02-27T12:50:42.092Z,56.25
2023-02-27T13:00:42.224Z,56.25
2023-02-27T13:10:42.388Z,56.25
2023-02-27T13:20:42.410Z,45.00
2023-02-27T13:30:42.750Z,50.62
2023-02-27T13:40:42.784Z,56.25
2023-02-27T13:50:43.096Z,56.25
2023-02-27T14:00:43.135Z,56.25
2023-02-27T14:10:43.472Z,56.25
2023-02-27T14:20:43.506Z,39.38
2023-02-27T14:30:44.809Z,45.00
2023-02-27T14:40:43.908Z,45.00
2023-02-27T14:50:44.214Z,28.12
2023-02-27T15:00:44.248Z,39.38
2023-02-27T15:10:44.594Z,28.12
2023-02-27T15:20:44.639Z,22.50
2023-02-27T15:30:44.955Z,11.25
2023-02-27T15:40:45.115Z,11.25
2023-02-27T15:50:45.219Z,5.62
2023-02-27T16:00:45.362Z,5.62
2023-02-27T16:10:45.482Z,5.62
2023-02-27T16:20:45.675Z,0.00
2023-02-27T16:30:47.737Z,0.00
2023-02-27T16:40:46.017Z,0.00
2023-02-27T16:50:47.160Z,0.00
2023-02-27T17:00:46.634Z,0.00
2023-02-27T17:10:46.599Z,0.00
2023-02-27T17:20:46.881Z,0.00
2023-02-27T17:30:47.025Z,0.00
2023-02-27T17:40:47.133Z,0.00
2023-02-27T17:50:47.392Z,0.00
2023-02-27T18:00:47.822Z,0.00
2023-02-27T18:10:47.816Z,0.00
2023-02-27T18:20:48.093Z,0.00
2023-02-27T18:30:48.052Z,0.00
2023-02-27T18:40:48.356Z,0.00
2023-02-27T18:50:49.660Z,0.00
2023-02-27T19:00:54.458Z,0.00
2023-02-27T19:10:48.620Z,0.00
2023-02-27T19:20:49.215Z,0.00
2023-02-27T19:30:49.235Z,0.00
2023-02-27T19:40:49.619Z,0.00
2023-02-27T19:50:49.626Z,0.00
2023-02-27T20:00:49.958Z,0.00
2023-02-27T20:10:50.003Z,0.00
2023-02-27T20:20:50.267Z,0.00
2023-02-27T20:30:50.479Z,0.00
2023-02-27T20:40:50.719Z,0.00
2023-02-27T20:50:50.809Z,0.00
2023-02-27T21:00:51.148Z,0.00
2023-02-27T21:10:50.909Z,0.00
2023-02-27T21:20:53.293Z,0.00
2023-02-27T21:30:51.270Z,0.00
2023-02-27T21:40:51.409Z,0.00
2023-02-27T21:50:51.438Z,0.00
2023-02-27T22:00:51.769Z,0.00
2023-02-27T22:10:51.805Z,0.00
2023-02-27T22:20:52.132Z,0.00
2023-02-27T22:30:52.226Z,0.00
2023-02-27T22:40:52.299Z,0.00
2023-02-27T22:50:52.536Z,0.00
2023-02-27T23:00:52.878Z,0.00
2023-02-27T23:10:52.911Z,0.00
2023-02-27T23:20:53.267Z,0.00
2023-02-27T23:30:53.283Z,0.00
2023-02-27T23:40:53.610Z,0.00
2023-02-27T23:50:53.638Z,0.00
